Terminal Aerodrome Forecast
Issued by NWS

Current Version | Previous Version | Text Only | Print | Product List | Glossary On
Versions: 1 2 3 4 5 6 7 8 9 10 11 12 13 14 15
422
FTUS42 KMLB 011402 AAA
TAFSUA
TAF AMD
KSUA 011402Z 0114/0212 13014G20KT P6SM SCT030 BKN250
      TEMPO 0114/0117 BKN030
     FM020100 11010KT P6SM FEW025 SCT250=

USA.gov is the U.S. government's official web portal to all federal, state and local government web resources and services.